createdAt,value
2018-08-23T00:01:36.256Z,9.20
2018-08-23T00:04:11.597Z,8.47
2018-08-23T00:06:52.497Z,7.47
2018-08-23T00:09:23.363Z,7.10
2018-08-23T00:11:53.944Z,7.37
2018-08-23T00:14:24.872Z,6.23
2018-08-23T00:16:56.637Z,6.13
2018-08-23T00:19:27.503Z,5.57
2018-08-23T00:21:58.173Z,6.70
2018-08-23T00:24:28.727Z,7.70
2018-08-23T00:27:00.759Z,7.23
2018-08-23T00:29:33.657Z,7.80
2018-08-23T00:32:08.976Z,6.30
2018-08-23T00:34:40.552Z,8.90
2018-08-23T00:37:10.602Z,6.77
2018-08-23T00:39:40.050Z,7.37
2018-08-23T00:42:11.034Z,6.80
2018-08-23T00:44:57.503Z,7.30
2018-08-23T00:47:29.362Z,7.60
2018-08-23T00:49:58.773Z,6.40
2018-08-23T00:52:44.761Z,8.00
2018-08-23T00:55:22.016Z,6.90
2018-08-23T00:57:51.413Z,7.90
2018-08-23T01:00:22.298Z,5.90
2018-08-23T01:02:54.361Z,6.87
2018-08-23T01:05:28.902Z,6.70
2018-08-23T01:08:01.294Z,7.00
2018-08-23T01:10:30.726Z,6.30
2018-08-23T01:13:01.537Z,7.70
2018-08-23T01:15:31.949Z,7.93
2018-08-23T01:18:18.921Z,7.97
2018-08-23T01:20:49.802Z,6.73
2018-08-23T01:23:19.190Z,7.93
2018-08-23T01:25:49.313Z,6.23
2018-08-23T01:28:18.758Z,7.80
2018-08-23T01:30:48.929Z,7.37
2018-08-23T01:33:19.534Z,9.20
2018-08-23T01:35:50.178Z,7.17
2018-08-23T01:38:19.585Z,8.17
2018-08-23T01:40:49.160Z,9.00
2018-08-23T01:43:18.606Z,8.97
2018-08-23T01:45:48.038Z,7.17
2018-08-23T01:48:17.418Z,6.90
2018-08-23T01:50:46.848Z,7.37
2018-08-23T01:53:17.028Z,7.63
2018-08-23T01:55:46.428Z,8.10
2018-08-23T01:58:16.595Z,9.37
2018-08-23T02:00:47.021Z,8.73
2018-08-23T02:03:16.454Z,9.97
2018-08-23T02:05:45.822Z,9.70
2018-08-23T02:08:15.303Z,7.37
2018-08-23T02:10:44.678Z,8.10
2018-08-23T02:13:18.158Z,7.30
2018-08-23T02:15:50.621Z,7.47
2018-08-23T02:18:20.069Z,6.97
2018-08-23T02:20:54.341Z,8.80
2018-08-23T02:23:23.750Z,8.67
2018-08-23T02:25:53.266Z,8.43
2018-08-23T02:28:22.671Z,9.03
2018-08-23T02:30:53.322Z,8.30
2018-08-23T02:33:22.930Z,9.60
2018-08-23T02:36:22.221Z,9.53
2018-08-23T02:39:00.323Z,9.40
2018-08-23T02:41:29.945Z,9.80
2018-08-23T02:43:59.506Z,10.10
2018-08-23T02:46:30.054Z,10.97
2018-08-23T02:48:59.430Z,8.70
2018-08-23T02:51:50.413Z,9.33
2018-08-23T02:54:19.845Z,9.83
2018-08-23T02:56:55.128Z,9.33
2018-08-23T02:59:24.802Z,8.90
2018-08-23T03:01:54.218Z,8.77
2018-08-23T03:04:26.548Z,8.87
2018-08-23T03:07:03.527Z,9.20
2018-08-23T03:09:35.101Z,8.73
2018-08-23T03:12:10.755Z,9.90
2018-08-23T03:14:41.158Z,9.33
2018-08-23T03:17:17.097Z,8.00
2018-08-23T03:20:11.219Z,7.90
2018-08-23T03:22:41.212Z,9.70
2018-08-23T03:25:12.029Z,9.07
2018-08-23T03:27:41.442Z,9.73
2018-08-23T03:30:12.345Z,10.50
2018-08-23T03:32:41.782Z,9.20
2018-08-23T03:35:11.237Z,9.83
2018-08-23T03:37:40.673Z,10.57
2018-08-23T03:40:11.010Z,9.57
2018-08-23T03:42:40.622Z,8.37
2018-08-23T03:45:15.849Z,8.10
2018-08-23T03:47:50.543Z,9.50
2018-08-23T03:50:20.111Z,9.80
2018-08-23T03:52:50.812Z,12.47
2018-08-23T03:55:23.053Z,11.07
2018-08-23T03:57:57.513Z,10.00
2018-08-23T04:00:31.958Z,11.27
2018-08-23T04:03:03.195Z,11.17
2018-08-23T04:05:32.608Z,9.90
2018-08-23T04:08:02.021Z,11.53
2018-08-23T04:10:31.390Z,8.83
2018-08-23T04:13:00.782Z,9.10
2018-08-23T04:15:31.312Z,9.33
2018-08-23T04:18:18.889Z,9.70
2018-08-23T04:20:55.657Z,9.40
2018-08-23T04:23:25.050Z,8.30
2018-08-23T04:25:54.725Z,11.30
2018-08-23T04:28:24.085Z,11.40
2018-08-23T04:30:53.487Z,10.73
2018-08-23T04:33:22.850Z,9.97
2018-08-23T04:35:52.241Z,11.80
2018-08-23T04:38:21.648Z,11.30
2018-08-23T04:40:58.674Z,12.50
2018-08-23T04:43:28.098Z,9.83
2018-08-23T04:45:57.489Z,10.17
2018-08-23T04:48:26.890Z,9.27
2018-08-23T04:50:56.343Z,12.17
2018-08-23T04:53:25.763Z,11.57
2018-08-23T04:55:55.142Z,11.00
2018-08-23T04:58:24.563Z,11.33
2018-08-23T05:00:54.114Z,14.27
2018-08-23T05:03:23.533Z,11.73
2018-08-23T05:05:52.931Z,10.67
2018-08-23T05:08:22.298Z,11.03
2018-08-23T05:10:51.730Z,10.07
2018-08-23T05:13:21.315Z,10.60
2018-08-23T05:15:50.787Z,8.37
2018-08-23T05:18:20.207Z,10.67
2018-08-23T05:20:49.721Z,10.17
2018-08-23T05:23:20.174Z,9.80
2018-08-23T05:25:49.499Z,10.80
2018-08-23T05:28:20.046Z,11.93
2018-08-23T05:30:50.071Z,11.57
2018-08-23T05:33:20.596Z,12.90
2018-08-23T05:35:50.197Z,12.07
2018-08-23T05:38:20.326Z,12.40
2018-08-23T05:40:59.723Z,9.95
2018-08-23T05:43:29.188Z,9.87
2018-08-23T05:45:58.602Z,10.43
2018-08-23T05:48:31.184Z,10.60
2018-08-23T05:51:04.971Z,10.90
2018-08-23T05:53:38.635Z,10.70
2018-08-23T05:56:08.731Z,9.90
2018-08-23T05:58:38.350Z,11.20
2018-08-23T06:01:07.886Z,11.47
2018-08-23T06:03:38.426Z,11.83
2018-08-23T06:06:08.572Z,12.67
2018-08-23T06:08:41.702Z,11.70
2018-08-23T06:11:12.054Z,10.70
2018-08-23T06:13:41.474Z,10.87
2018-08-23T06:16:10.866Z,13.90
2018-08-23T06:18:40.363Z,12.20
2018-08-23T06:21:09.761Z,12.70
2018-08-23T06:24:05.255Z,13.50
2018-08-23T06:26:45.657Z,10.67
2018-08-23T06:29:21.294Z,10.73
2018-08-23T06:32:00.980Z,11.70
2018-08-23T06:34:32.213Z,10.57
2018-08-23T06:37:01.730Z,12.70
2018-08-23T06:39:31.318Z,11.23
2018-08-23T06:42:02.343Z,11.07
2018-08-23T06:44:41.977Z,10.10
2018-08-23T06:47:13.362Z,10.90
2018-08-23T06:49:44.126Z,12.33
2018-08-23T06:52:39.498Z,12.40
2018-08-23T06:55:14.590Z,13.33
2018-08-23T06:57:47.751Z,11.53
2018-08-23T07:00:22.830Z,11.50
2018-08-23T07:02:52.490Z,13.57
2018-08-23T07:05:22.138Z,13.53
2018-08-23T07:07:51.834Z,14.67
2018-08-23T07:10:21.602Z,12.40
2018-08-23T07:12:51.250Z,11.70
2018-08-23T07:15:20.702Z,13.70
2018-08-23T07:17:50.571Z,13.43
2018-08-23T07:20:20.075Z,15.37
2018-08-23T07:22:49.524Z,17.37
2018-08-23T07:25:19.630Z,24.40
2018-08-23T07:27:49.042Z,20.43
2018-08-23T07:30:19.895Z,25.60
2018-08-23T07:32:50.442Z,32.40
2018-08-23T07:35:21.031Z,24.60
2018-08-23T07:37:51.632Z,22.97
2018-08-23T07:40:23.026Z,18.80
2018-08-23T07:42:54.013Z,24.10
2018-08-23T07:45:24.217Z,23.00
2018-08-23T07:47:54.993Z,22.00
2018-08-23T07:50:24.474Z,21.57
2018-08-23T07:52:54.651Z,22.67
2018-08-23T07:55:24.037Z,24.40
2018-08-23T07:57:53.482Z,23.77
2018-08-23T08:00:39.233Z,28.03
2018-08-23T08:03:09.534Z,21.30
2018-08-23T08:05:42.918Z,23.60
2018-08-23T08:08:13.259Z,23.40
2018-08-23T08:10:45.034Z,23.37
2018-08-23T08:13:14.414Z,26.47
2018-08-23T08:15:43.798Z,18.50
2018-08-23T08:18:18.488Z,23.87
2018-08-23T08:20:54.818Z,22.00
2018-08-23T08:23:24.165Z,18.97
2018-08-23T08:25:53.548Z,19.20
2018-08-23T08:28:22.918Z,19.87
2018-08-23T08:31:02.393Z,19.03
2018-08-23T08:33:34.840Z,19.57
2018-08-23T08:36:05.177Z,19.07
2018-08-23T08:38:35.275Z,26.67
2018-08-23T08:41:04.689Z,22.67
2018-08-23T08:43:34.153Z,22.97
2018-08-23T08:46:03.575Z,19.50
2018-08-23T08:48:34.140Z,24.40
2018-08-23T08:51:21.822Z,20.30
2018-08-23T08:53:52.003Z,26.93
2018-08-23T08:56:27.609Z,24.70
2018-08-23T08:58:57.002Z,22.70
2018-08-23T09:01:26.382Z,23.60
2018-08-23T09:03:55.854Z,30.43
2018-08-23T09:06:30.289Z,23.37
2018-08-23T09:09:02.967Z,27.83
2018-08-23T09:11:32.354Z,22.00
2018-08-23T09:14:02.367Z,28.97
2018-08-23T09:16:31.844Z,16.67
2018-08-23T09:19:03.707Z,15.37
2018-08-23T09:21:33.549Z,18.80
2018-08-23T09:24:24.565Z,19.97
2018-08-23T09:26:54.562Z,18.10
2018-08-23T09:29:35.949Z,21.50
2018-08-23T09:32:20.535Z,19.47
2018-08-23T09:34:50.501Z,19.87
2018-08-23T09:37:19.927Z,19.23
2018-08-23T09:39:49.306Z,15.73
2018-08-23T09:42:18.695Z,17.77
2018-08-23T09:45:05.260Z,16.30
2018-08-23T09:47:34.799Z,17.00
2018-08-23T09:50:04.261Z,16.60
2018-08-23T09:52:38.631Z,12.43
2018-08-23T09:55:09.546Z,16.10
2018-08-23T09:57:39.222Z,18.00
2018-08-23T10:00:12.561Z,17.57
2018-08-23T10:02:47.199Z,16.33
2018-08-23T10:05:22.311Z,12.67
2018-08-23T10:07:56.802Z,16.17
2018-08-23T10:10:31.381Z,14.80
2018-08-23T10:13:05.981Z,13.57
2018-08-23T10:15:40.754Z,11.90
2018-08-23T10:18:15.262Z,12.50
2018-08-23T10:20:49.843Z,14.93
2018-08-23T10:23:22.350Z,14.83
2018-08-23T10:25:52.913Z,14.43
2018-08-23T10:28:23.559Z,14.90
2018-08-23T10:30:53.319Z,13.53
2018-08-23T10:33:22.752Z,11.20
2018-08-23T10:35:56.046Z,9.67
2018-08-23T10:38:26.907Z,9.93
2018-08-23T10:41:01.525Z,9.40
2018-08-23T10:43:36.347Z,11.80
2018-08-23T10:46:06.517Z,9.50
2018-08-23T10:48:35.870Z,10.90
2018-08-23T10:51:05.372Z,10.70
2018-08-23T10:53:34.814Z,8.50
2018-08-23T10:56:04.215Z,9.43
2018-08-23T10:58:33.686Z,9.40
2018-08-23T11:01:03.195Z,11.30
2018-08-23T11:03:32.562Z,8.57
2018-08-23T11:06:01.970Z,7.47
2018-08-23T11:08:33.083Z,11.03
2018-08-23T11:11:38.298Z,6.47
2018-08-23T11:14:14.630Z,6.47
2018-08-23T11:16:49.301Z,6.57
2018-08-23T11:19:23.833Z,8.00
2018-08-23T11:21:54.230Z,8.50
2018-08-23T11:24:23.597Z,5.63
2018-08-23T11:26:52.974Z,7.00
2018-08-23T11:29:23.699Z,5.93
2018-08-23T11:31:53.114Z,6.17
2018-08-23T11:34:22.527Z,6.80
2018-08-23T11:36:52.019Z,6.60
2018-08-23T11:39:21.965Z,7.30
2018-08-23T11:41:51.342Z,6.30
2018-08-23T11:44:20.807Z,6.83
2018-08-23T11:46:50.359Z,5.00
2018-08-23T11:49:19.770Z,6.37
2018-08-23T11:51:49.150Z,6.63
2018-08-23T11:54:18.534Z,7.87
2018-08-23T11:56:47.922Z,7.30
2018-08-23T11:59:17.410Z,7.70
2018-08-23T12:01:46.666Z,6.90
2018-08-23T12:04:16.070Z,6.93
2018-08-23T12:06:45.450Z,5.90
2018-08-23T12:09:14.809Z,5.00
2018-08-23T12:11:44.202Z,5.33
2018-08-23T12:14:13.581Z,5.90
2018-08-23T12:16:42.971Z,5.87
2018-08-23T12:19:12.338Z,5.37
2018-08-23T12:21:41.734Z,6.00
2018-08-23T12:24:11.138Z,8.53
2018-08-23T12:26:40.718Z,7.27
2018-08-23T12:29:10.675Z,6.80
2018-08-23T12:31:40.061Z,6.23
2018-08-23T12:34:10.535Z,5.40
2018-08-23T12:36:44.952Z,6.33
2018-08-23T12:39:19.521Z,5.13
2018-08-23T12:41:53.986Z,3.20
2018-08-23T12:44:23.358Z,4.87
2018-08-23T12:46:56.890Z,3.97
2018-08-23T12:49:26.412Z,6.23
2018-08-23T12:51:55.699Z,5.23
2018-08-23T12:54:25.069Z,6.50
2018-08-23T12:56:54.463Z,6.33
2018-08-23T12:59:23.847Z,8.47
2018-08-23T13:01:53.281Z,4.90
2018-08-23T13:04:22.591Z,6.33
2018-08-23T13:06:51.986Z,4.57
2018-08-23T13:09:21.451Z,6.00
2018-08-23T13:11:50.818Z,5.90
2018-08-23T13:14:20.190Z,4.97
2018-08-23T13:16:49.795Z,4.17
2018-08-23T13:19:19.193Z,6.27
2018-08-23T13:21:52.669Z,5.47
2018-08-23T13:24:22.037Z,5.90
2018-08-23T13:26:51.403Z,5.17
2018-08-23T13:29:20.778Z,5.60
2018-08-23T13:31:50.165Z,4.10
2018-08-23T13:34:19.545Z,6.03
2018-08-23T13:36:48.998Z,4.40
2018-08-23T13:39:18.314Z,5.00
2018-08-23T13:41:47.705Z,4.40
2018-08-23T13:44:17.205Z,4.77
2018-08-23T13:46:46.567Z,5.00
2018-08-23T13:49:16.022Z,5.80
2018-08-23T13:51:45.499Z,4.60
2018-08-23T13:54:14.907Z,6.40
2018-08-23T13:56:44.270Z,5.00
2018-08-23T13:59:13.817Z,9.50
2018-08-23T14:01:43.301Z,5.40
2018-08-23T14:04:12.681Z,5.60
2018-08-23T14:06:42.030Z,6.10
2018-08-23T14:09:11.458Z,5.60
2018-08-23T14:11:40.846Z,6.27
2018-08-23T14:14:10.212Z,5.40
2018-08-23T14:16:39.583Z,6.10
2018-08-23T14:19:08.984Z,5.50
2018-08-23T14:21:38.370Z,5.83
2018-08-23T14:24:07.778Z,8.80
2018-08-23T14:26:37.175Z,6.50
2018-08-23T14:29:06.682Z,5.50
2018-08-23T14:31:36.049Z,9.80
2018-08-23T14:34:05.581Z,6.50
2018-08-23T14:36:34.990Z,7.53
2018-08-23T14:39:06.739Z,4.60
2018-08-23T14:41:36.454Z,6.60
2018-08-23T14:44:06.241Z,5.80
2018-08-23T14:46:40.759Z,5.07
2018-08-23T14:49:10.166Z,6.07
2018-08-23T14:51:39.554Z,5.60
2018-08-23T14:54:14.295Z,5.10
2018-08-23T14:56:48.806Z,6.57
2018-08-23T14:59:18.250Z,5.27
2018-08-23T15:01:47.727Z,7.60
2018-08-23T15:04:17.106Z,7.00
2018-08-23T15:06:46.537Z,5.77
2018-08-23T15:09:15.967Z,7.57
2018-08-23T15:11:45.319Z,7.23
2018-08-23T15:14:14.803Z,6.60
2018-08-23T15:16:44.090Z,7.83
2018-08-23T15:19:13.471Z,5.47
2018-08-23T15:21:42.840Z,5.53
2018-08-23T15:24:12.246Z,6.37
2018-08-23T15:26:41.764Z,5.87
2018-08-23T15:29:13.755Z,5.60
2018-08-23T15:31:44.707Z,7.53
2018-08-23T15:34:14.158Z,7.53
2018-08-23T15:36:43.538Z,7.20
2018-08-23T15:39:15.154Z,5.30
2018-08-23T15:41:44.563Z,5.67
2018-08-23T15:44:14.578Z,6.20
2018-08-23T15:46:44.961Z,6.57
2018-08-23T15:49:14.621Z,7.90
2018-08-23T15:51:44.410Z,5.00
2018-08-23T15:54:18.034Z,6.20
2018-08-23T15:56:47.478Z,6.60
2018-08-23T15:59:16.873Z,6.80
2018-08-23T16:01:46.245Z,6.00
2018-08-23T16:04:15.624Z,7.87
2018-08-23T16:06:45.012Z,6.77
2018-08-23T16:09:14.373Z,4.87
2018-08-23T16:11:43.835Z,11.53
2018-08-23T16:14:13.307Z,4.50
2018-08-23T16:16:47.970Z,8.03
2018-08-23T16:19:22.797Z,4.57
2018-08-23T16:21:56.754Z,5.70
2018-08-23T16:24:27.203Z,5.90
2018-08-23T16:27:06.529Z,7.97
2018-08-23T16:29:35.915Z,5.17
2018-08-23T16:32:05.381Z,11.87
2018-08-23T16:34:34.663Z,6.90
2018-08-23T16:37:04.054Z,5.90
2018-08-23T16:39:33.434Z,4.70
2018-08-23T16:42:02.810Z,4.47
2018-08-23T16:44:32.266Z,3.87
2018-08-23T16:47:01.641Z,4.60
2018-08-23T16:49:31.082Z,4.70
2018-08-23T16:52:00.439Z,4.70
2018-08-23T16:54:30.422Z,4.77
2018-08-23T16:56:59.797Z,4.63
2018-08-23T17:04:33.941Z,6.73
2018-08-23T17:07:03.303Z,6.00
2018-08-23T17:09:32.735Z,4.20
2018-08-23T17:12:02.122Z,5.33
2018-08-23T17:14:31.531Z,6.20
2018-08-23T17:17:06.062Z,5.97
2018-08-23T17:19:35.454Z,4.50
2018-08-23T17:22:04.820Z,7.07
2018-08-23T17:24:34.452Z,5.20
2018-08-23T17:27:03.654Z,4.90
2018-08-23T17:29:33.074Z,4.27
2018-08-23T17:32:02.445Z,4.90
2018-08-23T17:34:31.831Z,5.80
2018-08-23T17:37:01.330Z,6.93
2018-08-23T17:39:30.698Z,4.20
2018-08-23T17:42:00.094Z,4.23
2018-08-23T17:44:29.474Z,4.27
2018-08-23T17:46:58.871Z,5.07
2018-08-23T17:49:28.306Z,4.70
2018-08-23T17:51:57.595Z,3.77
2018-08-23T17:54:27.014Z,5.80
2018-08-23T17:56:56.554Z,6.20
2018-08-23T17:59:26.036Z,5.73
2018-08-23T18:01:55.450Z,5.60
2018-08-23T18:04:24.851Z,5.47
2018-08-23T18:06:54.222Z,6.27
2018-08-23T18:09:23.610Z,4.50
2018-08-23T18:11:53.087Z,4.60
2018-08-23T18:14:22.462Z,4.93
2018-08-23T18:16:57.062Z,3.87
2018-08-23T18:19:26.763Z,5.30
2018-08-23T18:21:56.176Z,3.40
2018-08-23T18:24:25.602Z,6.63
2018-08-23T18:26:55.066Z,8.27
2018-08-23T18:29:24.471Z,4.77
2018-08-23T18:31:53.847Z,6.73
2018-08-23T18:34:23.300Z,5.93
2018-08-23T18:36:52.672Z,7.33
2018-08-23T18:39:22.030Z,5.97
2018-08-23T18:41:51.434Z,6.53
2018-08-23T18:44:20.867Z,4.93
2018-08-23T18:46:50.355Z,3.33
2018-08-23T18:49:19.856Z,6.23
2018-08-23T18:51:49.382Z,5.57
2018-08-23T18:54:19.015Z,5.60
2018-08-23T18:56:50.114Z,5.03
2018-08-23T18:59:22.436Z,4.97
2018-08-23T19:01:54.370Z,5.10
2018-08-23T19:04:26.745Z,6.27
2018-08-23T19:06:58.746Z,6.10
2018-08-23T19:09:31.562Z,5.37
2018-08-23T19:12:04.216Z,4.60
2018-08-23T19:14:37.257Z,3.67
2018-08-23T19:17:14.912Z,5.73
2018-08-23T19:19:47.765Z,4.90
2018-08-23T19:22:20.791Z,5.23
2018-08-23T19:24:54.166Z,5.50
2018-08-23T19:27:26.988Z,5.20
2018-08-23T19:29:59.676Z,5.67
2018-08-23T19:32:32.517Z,6.20
2018-08-23T19:35:05.486Z,5.40
2018-08-23T19:37:38.431Z,5.13
2018-08-23T19:40:11.515Z,3.80
2018-08-23T19:42:45.040Z,4.13
2018-08-23T19:45:18.918Z,5.30
2018-08-23T19:47:56.002Z,3.97
2018-08-23T19:50:28.904Z,3.67
2018-08-23T19:53:01.795Z,6.20
2018-08-23T19:55:35.067Z,6.20
2018-08-23T19:58:08.404Z,5.93
2018-08-23T20:00:41.410Z,8.00
2018-08-23T20:03:14.193Z,7.43
2018-08-23T20:05:47.030Z,5.80
2018-08-23T20:08:20.055Z,6.20
2018-08-23T20:10:52.851Z,5.50
2018-08-23T20:13:25.226Z,6.50
2018-08-23T20:15:57.430Z,5.47
2018-08-23T20:18:28.168Z,7.50
2018-08-23T20:20:58.472Z,6.97
2018-08-23T20:23:28.904Z,5.23
2018-08-23T20:25:58.449Z,7.23
2018-08-23T20:28:27.955Z,5.47
2018-08-23T20:30:58.028Z,6.63
2018-08-23T20:33:27.539Z,6.43
2018-08-23T20:35:56.925Z,5.90
2018-08-23T20:38:26.317Z,6.10
2018-08-23T20:40:55.725Z,5.00
2018-08-23T20:43:25.166Z,7.40
2018-08-23T20:45:54.553Z,9.10
2018-08-23T20:48:23.938Z,4.67
2018-08-23T20:50:53.346Z,5.47
2018-08-23T20:53:22.694Z,5.63
2018-08-23T20:55:52.126Z,6.57
2018-08-23T20:58:21.598Z,5.97
2018-08-23T21:00:50.986Z,5.77
2018-08-23T21:03:20.386Z,6.47
2018-08-23T21:05:49.768Z,7.23
2018-08-23T21:08:19.138Z,6.07
2018-08-23T21:10:48.550Z,7.40
2018-08-23T21:13:17.914Z,8.77
2018-08-23T21:15:47.330Z,6.00
2018-08-23T21:18:16.707Z,5.50
2018-08-23T21:20:46.108Z,7.30
2018-08-23T21:23:15.566Z,7.20
2018-08-23T21:25:44.946Z,5.33
2018-08-23T21:28:14.347Z,9.13
2018-08-23T21:30:43.718Z,6.30
2018-08-23T21:33:13.130Z,8.27
2018-08-23T21:35:42.554Z,5.97
2018-08-23T21:38:11.982Z,7.43
2018-08-23T21:40:41.345Z,6.00
2018-08-23T21:43:10.725Z,5.30
2018-08-23T21:45:40.090Z,7.00
2018-08-23T21:48:09.522Z,8.10
2018-08-23T21:50:38.930Z,5.67
2018-08-23T21:53:08.564Z,6.40
2018-08-23T21:55:39.037Z,7.63
2018-08-23T21:58:10.579Z,7.10
2018-08-23T22:00:45.385Z,7.07
2018-08-23T22:03:15.043Z,6.63
2018-08-23T22:05:44.499Z,5.83
2018-08-23T22:08:13.901Z,7.73
2018-08-23T22:10:43.279Z,5.83
2018-08-23T22:13:12.807Z,5.07
2018-08-23T22:15:47.902Z,7.20
2018-08-23T22:18:18.242Z,10.10
2018-08-23T22:20:47.633Z,5.83
2018-08-23T22:23:17.066Z,6.10
2018-08-23T22:25:46.442Z,7.10
2018-08-23T22:28:15.965Z,7.67
2018-08-23T22:30:45.501Z,11.97
2018-08-23T22:33:14.905Z,7.17
2018-08-23T22:35:44.325Z,7.50
2018-08-23T22:38:13.810Z,7.87
2018-08-23T22:40:43.217Z,7.67
2018-08-23T22:43:12.729Z,8.30
2018-08-23T22:45:42.140Z,7.37
2018-08-23T22:48:11.534Z,10.97
2018-08-23T22:50:40.943Z,6.93
2018-08-23T22:53:10.310Z,6.67
2018-08-23T22:55:39.713Z,7.47
2018-08-23T22:58:09.094Z,8.60
2018-08-23T23:00:40.362Z,6.23
2018-08-23T23:04:12.750Z,7.10
2018-08-23T23:06:42.394Z,7.70
2018-08-23T23:09:13.449Z,6.53
2018-08-23T23:11:43.490Z,6.77
2018-08-23T23:14:13.294Z,7.73
2018-08-23T23:16:42.688Z,6.70
2018-08-23T23:19:12.141Z,8.13
2018-08-23T23:21:41.574Z,6.57
2018-08-23T23:24:16.039Z,8.80
2018-08-23T23:26:45.420Z,7.27
2018-08-23T23:29:14.806Z,7.10
2018-08-23T23:31:44.168Z,8.97
2018-08-23T23:34:13.557Z,8.67
2018-08-23T23:36:42.906Z,8.50
2018-08-23T23:39:12.269Z,7.87
2018-08-23T23:41:41.649Z,7.40
2018-08-23T23:44:11.135Z,10.70
2018-08-23T23:46:40.774Z,5.80
2018-08-23T23:49:10.121Z,8.77
2018-08-23T23:51:39.870Z,5.37
2018-08-23T23:54:09.541Z,4.83
2018-08-23T23:56:38.938Z,8.43
2018-08-23T23:59:08.337Z,8.20
